Weather History for KSNL - January, 2013

Change the Weather History Date:

Monday, January 14, 2013

  Actual Average (KTIK) Record (KTIK)
Temperature  
Mean Temperature 31 °F -  
Max Temperature 39 °F 46 °F 62 °F (2004)
Min Temperature 23 °F 27 °F 15 °F (1997)
Degree Days  
Heating Degree Days 34    
Moisture  
Dew Point 20 °F    
Average Humidity 66    
Maximum Humidity 86    
Minimum Humidity 45    
Precipitation  
Precipitation 0.00 in - - ()
Sea Level Pressure  
Sea Level Pressure 30.36 in    
Wind  
Wind Speed 7 mph (NE)    
Max Wind Speed 14 mph    
Max Gust Speed 18 mph    
Visibility 10 miles    
Events      
Averages and records for this station are not official NWS values.
T = Trace of Precipitation, MM = Missing Value Source: NWS Daily Summary

Daily Weather History Graph

Daily Weather History Graph

Search for Another Location

Airport or City:

Trip Planner

Search our weather history database for the weather conditions in past years. The results will help you decide how hot, cold, wet, or windy it might be!

Date:

Astronomy

Jan. 14, 2013 Rise Set
Actual Time 7:36 AM CST 5:37 PM CST
Civil Twilight 7:08 AM CST 6:05 PM CST
Nautical Twilight 6:37 AM CST 6:36 PM CST
Astronomical Twilight 6:06 AM CST 7:07 PM CST
Moon 9:19 AM CST (1/14) 9:14 PM CST (1/14)
Length of Visible Light 10h 57m
Length of Day
10h 01m
Waxing Crescent, 11% of the Moon is Illuminated
Jan 14
Waxing Crescent
Jan 18
First Quarter
Jan 26
Full
Feb 3
Last Quarter
Feb 10
New

Hourly Weather History & Observations

Time (CST) Temp. Windchill Dew Point Humidity Pressure Visibility Wind Dir Wind Speed Gust Speed Precip Events Conditions
12:15 AM 24.8 °F 20.5 °F 19.4 °F 80% 30.39 in 10.0 mi North 3.5 mph - N/A   Clear
12:35 AM 24.8 °F 17.9 °F 19.4 °F 80% 30.38 in 10.0 mi NNE 5.8 mph - N/A   Clear
12:55 AM 24.8 °F 17.9 °F 19.4 °F 80% 30.38 in 10.0 mi NNE 5.8 mph - N/A   Clear
1:15 AM 24.8 °F 16.9 °F 19.4 °F 80% 30.37 in 10.0 mi NNE 6.9 mph - N/A   Clear
1:35 AM 24.8 °F 16.9 °F 19.4 °F 80% 30.37 in 10.0 mi NNE 6.9 mph - N/A   Clear
1:55 AM 24.8 °F 16.1 °F 19.4 °F 80% 30.36 in 10.0 mi NNE 8.1 mph - N/A   Clear
2:15 AM 23.0 °F 14.7 °F 19.4 °F 86% 30.37 in 10.0 mi NNE 6.9 mph - N/A   Clear
2:55 AM 23.0 °F 15.8 °F 19.4 °F 86% 30.37 in 10.0 mi North 5.8 mph - N/A   Clear
3:15 AM 23.0 °F 15.8 °F 19.4 °F 86% 30.37 in 10.0 mi NNE 5.8 mph - N/A   Clear
3:35 AM 23.0 °F 13.9 °F 19.4 °F 86% 30.38 in 10.0 mi NNE 8.1 mph - N/A   Clear
3:55 AM 24.8 °F 16.9 °F 19.4 °F 80% 30.38 in 10.0 mi NNE 6.9 mph - N/A   Clear
4:15 AM 24.8 °F 16.9 °F 19.4 °F 80% 30.38 in 10.0 mi NNE 6.9 mph - N/A   Clear
4:35 AM 24.8 °F 19.1 °F 19.4 °F 80% 30.39 in 10.0 mi NNE 4.6 mph - N/A   Clear
4:55 AM 24.8 °F 16.9 °F 19.4 °F 80% 30.38 in 10.0 mi NNE 6.9 mph - N/A   Clear
5:15 AM 24.8 °F 16.1 °F 19.4 °F 80% 30.37 in 10.0 mi NNE 8.1 mph - N/A   Clear
5:35 AM 24.8 °F 16.1 °F 19.4 °F 80% 30.37 in 10.0 mi North 8.1 mph - N/A   Clear
5:55 AM 24.8 °F 16.1 °F 19.4 °F 80% 30.37 in 10.0 mi NNE 8.1 mph - N/A   Clear
6:15 AM 24.8 °F 16.9 °F 17.6 °F 74% 30.37 in 10.0 mi NNE 6.9 mph - N/A   Clear
6:35 AM 26.6 °F 19.1 °F 19.4 °F 74% 30.37 in 10.0 mi NNE 6.9 mph - N/A   Clear
6:55 AM 26.6 °F 19.1 °F 19.4 °F 74% 30.39 in 10.0 mi NNE 6.9 mph - N/A   Clear
7:15 AM 26.6 °F 21.2 °F 17.6 °F 69% 30.40 in 10.0 mi NE 4.6 mph - N/A   Clear
7:35 AM 26.6 °F 18.2 °F 19.4 °F 74% 30.40 in 10.0 mi NNE 8.1 mph - N/A   Clear
7:55 AM 26.6 °F 19.1 °F 17.6 °F 69% 30.41 in 10.0 mi NE 6.9 mph - N/A   Clear
8:15 AM 26.6 °F 20.0 °F 17.6 °F 69% 30.44 in 10.0 mi NNE 5.8 mph - N/A   Clear
8:35 AM 26.6 °F 21.2 °F 17.6 °F 69% 30.45 in 10.0 mi NE 4.6 mph - N/A   Clear
8:55 AM 28.4 °F 19.7 °F 17.6 °F 64% 30.45 in 10.0 mi NE 9.2 mph - N/A   Clear
9:15 AM 30.2 °F 20.8 °F 17.6 °F 60% 30.46 in 10.0 mi ENE 11.5 mph 17.3 mph N/A   Clear
9:35 AM 30.2 °F 20.8 °F 17.6 °F 60% 30.45 in 10.0 mi NE 11.5 mph 16.1 mph N/A   Clear
9:55 AM 30.2 °F 23.4 °F 17.6 °F 60% 30.45 in 10.0 mi NE 6.9 mph 16.1 mph N/A   Clear
10:15 AM 32.0 °F 22.5 °F 17.6 °F 55% 30.44 in 10.0 mi ENE 12.7 mph - N/A   Clear
10:35 AM 32.0 °F 24.2 °F 17.6 °F 55% 30.43 in 10.0 mi NE 9.2 mph - N/A   Clear
10:55 AM 32.0 °F 24.8 °F 17.6 °F 55% 30.41 in 10.0 mi NE 8.1 mph 16.1 mph N/A   Scattered Clouds
11:15 AM 32.0 °F 23.0 °F 17.6 °F 55% 30.41 in 10.0 mi East 11.5 mph - N/A   Overcast
11:35 AM 33.8 °F 24.3 °F 17.6 °F 52% 30.40 in 10.0 mi East 13.8 mph 17.3 mph N/A   Mostly Cloudy
11:55 AM 35.6 °F 27.1 °F 19.4 °F 52% 30.38 in 10.0 mi ENE 12.7 mph - N/A   Scattered Clouds
12:15 PM 35.6 °F 29.2 °F 19.4 °F 52% 30.37 in 10.0 mi ENE 8.1 mph - N/A   Clear
12:35 PM 35.6 °F 29.2 °F 19.4 °F 52% 30.36 in 10.0 mi ENE 8.1 mph - N/A   Scattered Clouds
12:55 PM 35.6 °F 28.0 °F 19.4 °F 52% 30.34 in 10.0 mi ENE 10.4 mph - N/A   Scattered Clouds
1:15 PM 35.6 °F 28.6 °F 19.4 °F 52% 30.33 in 10.0 mi ENE 9.2 mph - N/A   Clear
1:35 PM 37.4 °F 32.8 °F 19.4 °F 48% 30.34 in 10.0 mi ENE 5.8 mph - N/A   Clear
2:15 PM 37.4 °F 29.3 °F 19.4 °F 48% 30.31 in 10.0 mi NNE 12.7 mph 18.4 mph N/A   Clear
2:55 PM 37.4 °F 29.8 °F 21.2 °F 52% 30.30 in 10.0 mi NE 11.5 mph 17.3 mph N/A   Clear
3:15 PM 37.4 °F 30.8 °F 19.4 °F 48% 30.31 in 10.0 mi NE 9.2 mph 17.3 mph N/A   Clear
3:35 PM 39.2 °F 33.0 °F 19.4 °F 45% 30.31 in 10.0 mi ENE 9.2 mph - N/A   Clear
3:55 PM 37.4 °F 30.8 °F 19.4 °F 48% 30.31 in 10.0 mi NNE 9.2 mph - N/A   Clear
4:15 PM 37.4 °F 32.1 °F 19.4 °F 48% 30.30 in 10.0 mi NE 6.9 mph - N/A   Clear
4:35 PM 37.4 °F 31.4 °F 19.4 °F 48% 30.31 in 10.0 mi East 8.1 mph - N/A   Clear
4:55 PM 37.4 °F 32.1 °F 19.4 °F 48% 30.31 in 10.0 mi East 6.9 mph - N/A   Clear
5:15 PM 35.6 °F 29.9 °F 19.4 °F 52% 30.31 in 10.0 mi ENE 6.9 mph - N/A   Clear
5:35 PM 35.6 °F 29.9 °F 19.4 °F 52% 30.31 in 10.0 mi ENE 6.9 mph - N/A   Clear
5:55 PM 35.6 °F 31.7 °F 21.2 °F 56% 30.31 in 10.0 mi ENE 4.6 mph - N/A   Clear
6:15 PM 33.8 °F 30.8 °F 19.4 °F 56% 30.32 in 10.0 mi ENE 3.5 mph - N/A   Clear
6:35 PM 33.8 °F 28.6 °F 21.2 °F 60% 30.32 in 10.0 mi NE 5.8 mph - N/A   Clear
6:55 PM 33.8 °F 30.8 °F 21.2 °F 60% 30.32 in 10.0 mi NE 3.5 mph - N/A   Clear
7:15 PM 32.0 °F 27.5 °F 21.2 °F 64% 30.32 in 10.0 mi NE 4.6 mph - N/A   Clear
7:55 PM 32.0 °F 26.4 °F 19.4 °F 60% 30.32 in 10.0 mi NE 5.8 mph - N/A   Clear
8:15 PM 32.0 °F 26.4 °F 19.4 °F 60% 30.32 in 10.0 mi NE 5.8 mph - N/A   Clear
8:35 PM 32.0 °F 27.5 °F 21.2 °F 64% 30.32 in 10.0 mi NE 4.6 mph - N/A   Clear
8:55 PM 32.0 °F 25.6 °F 21.2 °F 64% 30.32 in 10.0 mi NE 6.9 mph - N/A   Clear
9:15 PM 32.0 °F 27.5 °F 21.2 °F 64% 30.33 in 10.0 mi NE 4.6 mph - N/A   Clear
9:35 PM 32.0 °F 24.8 °F 23.0 °F 69% 30.32 in 10.0 mi NE 8.1 mph - N/A   Clear
9:55 PM 30.2 °F 24.3 °F 21.2 °F 69% 30.31 in 10.0 mi NE 5.8 mph - N/A   Clear
10:15 PM 30.2 °F 22.6 °F 21.2 °F 69% 30.31 in 10.0 mi NE 8.1 mph - N/A   Clear
10:35 PM 30.2 °F 22.6 °F 23.0 °F 75% 30.31 in 10.0 mi NE 8.1 mph - N/A   Clear
10:55 PM 30.2 °F 25.4 °F 23.0 °F 75% 30.32 in 10.0 mi NE 4.6 mph - N/A   Clear
11:15 PM 28.4 °F 21.2 °F 23.0 °F 80% 30.31 in 10.0 mi NE 6.9 mph - N/A   Clear
11:35 PM 28.4 °F 22.2 °F 23.0 °F 80% 30.31 in 10.0 mi NE 5.8 mph - N/A   Clear
11:55 PM 28.4 °F 23.3 °F 23.0 °F 80% 30.32 in 10.0 mi NE 4.6 mph - N/A   Clear